aviador You're here:

EPLL Decoded Metar

LODZ in POLAND
Report Time2017-10-21 15:00:00
UTC Time2017-10-21 15:32:34
Flight Rules vfr VFR
Wind270° at 04 kt
W.Decomp.*RWY 25: 3.8 kt HW 1.1 kt RCW
W.Rank270° ranks 2
Current wind is below 270° avg. (8.5)
Visibility9999 m
Phenomena:N/A
Clouds:Few 025 Hf
Expected CloudBase > 1,200 ft AGL from Temp-Dew spread
CeilingNone
Temp12°C (ISA -2)
Dew Point09°C (82% RH)
AAT10.3°C
QNH1014 hPa
Density Alt512 ft
Elevation604 ft
Report Wrong Elevation
Raw Report
EPLL 211500Z 27004KT 9999 FEW025 12/09 Q1014=

Extra information for EPLL:More info

Metar Taf Metar & Taf Last 4 Metars F.Rules Stats Wind Profile Meteogram Temp Stats Airport Information Weather charts Add Link Nearby VenuesMetar ALERT Operation Metar Decoded Social comments